sensor_id;sensor_type;location;lat;lon;timestamp;P1;durP1;ratioP1;P2;durP2;ratioP2
75634;SDS011;64227;48.724;9.104;2023-11-21T00:00:46;2.17;;;1.23;;
75634;SDS011;64227;48.724;9.104;2023-11-21T00:03:12;4.38;;;1.23;;
75634;SDS011;64227;48.724;9.104;2023-11-21T00:05:40;5.43;;;1.90;;
75634;SDS011;64227;48.724;9.104;2023-11-21T00:08:06;2.33;;;1.52;;
75634;SDS011;64227;48.724;9.104;2023-11-21T00:10:31;2.85;;;1.35;;
75634;SDS011;64227;48.724;9.104;2023-11-21T00:12:57;3.13;;;1.75;;
75634;SDS011;64227;48.724;9.104;2023-11-21T00:15:22;4.53;;;1.40;;
75634;SDS011;64227;48.724;9.104;2023-11-21T00:17:47;1.77;;;1.20;;
75634;SDS011;64227;48.724;9.104;2023-11-21T00:20:13;1.88;;;1.00;;
75634;SDS011;64227;48.724;9.104;2023-11-21T00:22:38;1.45;;;1.17;;
75634;SDS011;64227;48.724;9.104;2023-11-21T00:25:05;2.75;;;1.20;;
75634;SDS011;64227;48.724;9.104;2023-11-21T00:27:31;3.70;;;1.10;;
75634;SDS011;64227;48.724;9.104;2023-11-21T00:29:56;2.35;;;1.17;;
75634;SDS011;64227;48.724;9.104;2023-11-21T00:32:21;1.15;;;1.05;;
75634;SDS011;64227;48.724;9.104;2023-11-21T00:34:47;2.45;;;1.10;;
75634;SDS011;64227;48.724;9.104;2023-11-21T00:37:12;4.20;;;1.13;;
75634;SDS011;64227;48.724;9.104;2023-11-21T00:39:37;4.65;;;1.08;;
75634;SDS011;64227;48.724;9.104;2023-11-21T00:42:03;2.15;;;0.88;;
75634;SDS011;64227;48.724;9.104;2023-11-21T00:44:29;4.32;;;1.13;;
75634;SDS011;64227;48.724;9.104;2023-11-21T00:46:55;4.25;;;1.27;;
75634;SDS011;64227;48.724;9.104;2023-11-21T00:49:20;2.30;;;1.10;;
75634;SDS011;64227;48.724;9.104;2023-11-21T00:51:45;3.65;;;1.00;;
75634;SDS011;64227;48.724;9.104;2023-11-21T00:54:11;1.15;;;0.98;;
75634;SDS011;64227;48.724;9.104;2023-11-21T00:56:36;2.80;;;1.48;;
75634;SDS011;64227;48.724;9.104;2023-11-21T00:59:02;4.57;;;1.65;;
75634;SDS011;64227;48.724;9.104;2023-11-21T01:01:29;1.33;;;0.80;;
75634;SDS011;64227;48.724;9.104;2023-11-21T01:03:55;3.13;;;1.40;;
75634;SDS011;64227;48.724;9.104;2023-11-21T01:06:20;6.15;;;1.27;;
75634;SDS011;64227;48.724;9.104;2023-11-21T01:08:45;5.72;;;1.40;;
75634;SDS011;64227;48.724;9.104;2023-11-21T01:11:11;2.60;;;1.00;;
75634;SDS011;64227;48.724;9.104;2023-11-21T01:13:37;4.00;;;1.08;;
75634;SDS011;64227;48.724;9.104;2023-11-21T01:16:04;1.95;;;1.05;;
75634;SDS011;64227;48.724;9.104;2023-11-21T01:18:30;1.80;;;0.80;;
75634;SDS011;64227;48.724;9.104;2023-11-21T01:20:55;1.58;;;0.85;;
75634;SDS011;64227;48.724;9.104;2023-11-21T01:23:20;1.58;;;0.73;;
75634;SDS011;64227;48.724;9.104;2023-11-21T01:25:46;2.20;;;0.80;;
75634;SDS011;64227;48.724;9.104;2023-11-21T01:28:11;1.33;;;0.73;;
75634;SDS011;64227;48.724;9.104;2023-11-21T01:30:37;1.98;;;0.80;;
75634;SDS011;64227;48.724;9.104;2023-11-21T01:33:02;2.28;;;0.90;;
75634;SDS011;64227;48.724;9.104;2023-11-21T01:35:28;2.33;;;0.70;;
75634;SDS011;64227;48.724;9.104;2023-11-21T01:37:53;0.80;;;0.77;;
75634;SDS011;64227;48.724;9.104;2023-11-21T01:40:18;4.15;;;0.70;;
75634;SDS011;64227;48.724;9.104;2023-11-21T01:42:44;0.65;;;0.60;;
75634;SDS011;64227;48.724;9.104;2023-11-21T01:45:11;1.73;;;0.60;;
75634;SDS011;64227;48.724;9.104;2023-11-21T01:47:37;3.20;;;1.00;;
75634;SDS011;64227;48.724;9.104;2023-11-21T01:50:03;2.00;;;0.70;;
75634;SDS011;64227;48.724;9.104;2023-11-21T01:52:32;1.55;;;0.50;;
75634;SDS011;64227;48.724;9.104;2023-11-21T01:54:58;1.65;;;0.77;;
75634;SDS011;64227;48.724;9.104;2023-11-21T01:57:24;2.17;;;0.70;;
75634;SDS011;64227;48.724;9.104;2023-11-21T01:59:49;2.05;;;0.60;;
75634;SDS011;64227;48.724;9.104;2023-11-21T02:02:15;2.00;;;0.75;;
75634;SDS011;64227;48.724;9.104;2023-11-21T02:04:41;2.45;;;0.80;;
75634;SDS011;64227;48.724;9.104;2023-11-21T02:07:06;1.08;;;0.70;;
75634;SDS011;64227;48.724;9.104;2023-11-21T02:09:32;1.10;;;0.70;;
75634;SDS011;64227;48.724;9.104;2023-11-21T02:12:03;0.82;;;0.60;;
75634;SDS011;64227;48.724;9.104;2023-11-21T02:14:30;0.70;;;0.57;;
75634;SDS011;64227;48.724;9.104;2023-11-21T02:16:55;1.88;;;0.63;;
75634;SDS011;64227;48.724;9.104;2023-11-21T02:19:22;0.95;;;0.60;;
75634;SDS011;64227;48.724;9.104;2023-11-21T02:21:50;2.25;;;0.90;;
75634;SDS011;64227;48.724;9.104;2023-11-21T02:24:20;2.42;;;0.75;;
75634;SDS011;64227;48.724;9.104;2023-11-21T02:26:46;1.17;;;0.50;;
75634;SDS011;64227;48.724;9.104;2023-11-21T02:29:11;0.85;;;0.43;;
75634;SDS011;64227;48.724;9.104;2023-11-21T02:31:38;2.25;;;0.70;;
75634;SDS011;64227;48.724;9.104;2023-11-21T02:34:12;3.38;;;0.90;;
75634;SDS011;64227;48.724;9.104;2023-11-21T02:36:41;1.95;;;0.40;;
75634;SDS011;64227;48.724;9.104;2023-11-21T02:39:07;0.90;;;0.60;;
75634;SDS011;64227;48.724;9.104;2023-11-21T02:41:33;1.75;;;0.50;;
75634;SDS011;64227;48.724;9.104;2023-11-21T02:43:59;2.15;;;0.60;;
75634;SDS011;64227;48.724;9.104;2023-11-21T02:46:25;0.50;;;0.40;;
75634;SDS011;64227;48.724;9.104;2023-11-21T02:48:50;0.32;;;0.32;;
75634;SDS011;64227;48.724;9.104;2023-11-21T02:51:16;1.00;;;0.47;;
75634;SDS011;64227;48.724;9.104;2023-11-21T02:53:41;0.70;;;0.40;;
75634;SDS011;64227;48.724;9.104;2023-11-21T02:56:06;3.63;;;0.50;;
75634;SDS011;64227;48.724;9.104;2023-11-21T02:58:32;0.63;;;0.40;;
75634;SDS011;64227;48.724;9.104;2023-11-21T03:00:57;1.77;;;0.52;;
75634;SDS011;64227;48.724;9.104;2023-11-21T03:03:23;0.77;;;0.32;;
75634;SDS011;64227;48.724;9.104;2023-11-21T03:05:49;2.17;;;0.63;;
75634;SDS011;64227;48.724;9.104;2023-11-21T03:08:14;1.73;;;0.40;;
75634;SDS011;64227;48.724;9.104;2023-11-21T03:10:40;0.93;;;0.40;;
75634;SDS011;64227;48.724;9.104;2023-11-21T03:13:05;1.10;;;0.30;;
75634;SDS011;64227;48.724;9.104;2023-11-21T03:15:30;0.88;;;0.38;;
75634;SDS011;64227;48.724;9.104;2023-11-21T03:17:57;2.30;;;0.40;;
75634;SDS011;64227;48.724;9.104;2023-11-21T03:20:22;3.50;;;0.45;;
75634;SDS011;64227;48.724;9.104;2023-11-21T03:22:48;0.50;;;0.30;;
75634;SDS011;64227;48.724;9.104;2023-11-21T03:25:13;1.25;;;0.32;;
75634;SDS011;64227;48.724;9.104;2023-11-21T03:27:40;1.52;;;0.20;;
75634;SDS011;64227;48.724;9.104;2023-11-21T03:30:07;2.45;;;0.30;;
75634;SDS011;64227;48.724;9.104;2023-11-21T03:32:34;1.20;;;0.50;;
75634;SDS011;64227;48.724;9.104;2023-11-21T03:35:00;1.30;;;0.40;;
75634;SDS011;64227;48.724;9.104;2023-11-21T03:37:27;1.05;;;0.47;;
75634;SDS011;64227;48.724;9.104;2023-11-21T03:39:52;0.50;;;0.25;;
75634;SDS011;64227;48.724;9.104;2023-11-21T03:42:17;1.75;;;0.50;;
75634;SDS011;64227;48.724;9.104;2023-11-21T03:44:43;0.68;;;0.43;;
75634;SDS011;64227;48.724;9.104;2023-11-21T03:47:08;0.77;;;0.47;;
75634;SDS011;64227;48.724;9.104;2023-11-21T03:49:34;0.32;;;0.30;;
75634;SDS011;64227;48.724;9.104;2023-11-21T03:51:59;0.73;;;0.38;;
75634;SDS011;64227;48.724;9.104;2023-11-21T03:54:24;0.60;;;0.20;;
75634;SDS011;64227;48.724;9.104;2023-11-21T03:56:49;3.00;;;0.40;;
75634;SDS011;64227;48.724;9.104;2023-11-21T03:59:15;1.27;;;0.50;;
75634;SDS011;64227;48.724;9.104;2023-11-21T04:01:40;0.60;;;0.40;;
75634;SDS011;64227;48.724;9.104;2023-11-21T04:04:06;0.33;;;0.30;;
75634;SDS011;64227;48.724;9.104;2023-11-21T04:06:31;0.95;;;0.50;;
75634;SDS011;64227;48.724;9.104;2023-11-21T04:08:57;0.50;;;0.30;;
75634;SDS011;64227;48.724;9.104;2023-11-21T04:11:23;1.00;;;0.55;;
75634;SDS011;64227;48.724;9.104;2023-11-21T04:13:48;2.28;;;0.50;;
75634;SDS011;64227;48.724;9.104;2023-11-21T04:16:14;0.88;;;0.30;;
75634;SDS011;64227;48.724;9.104;2023-11-21T04:18:39;0.95;;;0.30;;
75634;SDS011;64227;48.724;9.104;2023-11-21T04:21:05;0.30;;;0.30;;
75634;SDS011;64227;48.724;9.104;2023-11-21T04:23:30;1.15;;;0.60;;
75634;SDS011;64227;48.724;9.104;2023-11-21T04:25:56;0.30;;;0.30;;
75634;SDS011;64227;48.724;9.104;2023-11-21T04:28:22;0.63;;;0.35;;
75634;SDS011;64227;48.724;9.104;2023-11-21T04:30:49;0.75;;;0.35;;
75634;SDS011;64227;48.724;9.104;2023-11-21T04:33:15;0.40;;;0.30;;
75634;SDS011;64227;48.724;9.104;2023-11-21T04:35:41;1.20;;;0.43;;
75634;SDS011;64227;48.724;9.104;2023-11-21T04:38:06;0.57;;;0.30;;
75634;SDS011;64227;48.724;9.104;2023-11-21T04:40:31;0.22;;;0.20;;
75634;SDS011;64227;48.724;9.104;2023-11-21T04:42:57;0.20;;;0.20;;
75634;SDS011;64227;48.724;9.104;2023-11-21T04:45:22;0.73;;;0.43;;
75634;SDS011;64227;48.724;9.104;2023-11-21T04:47:47;0.32;;;0.32;;
75634;SDS011;64227;48.724;9.104;2023-11-21T04:50:13;0.40;;;0.40;;
75634;SDS011;64227;48.724;9.104;2023-11-21T04:52:38;0.47;;;0.20;;
75634;SDS011;64227;48.724;9.104;2023-11-21T04:55:04;0.22;;;0.22;;
75634;SDS011;64227;48.724;9.104;2023-11-21T04:57:31;0.55;;;0.30;;
75634;SDS011;64227;48.724;9.104;2023-11-21T04:59:57;0.43;;;0.25;;
75634;SDS011;64227;48.724;9.104;2023-11-21T05:02:22;0.38;;;0.22;;
75634;SDS011;64227;48.724;9.104;2023-11-21T05:04:47;0.20;;;0.20;;
75634;SDS011;64227;48.724;9.104;2023-11-21T05:07:13;0.30;;;0.30;;
75634;SDS011;64227;48.724;9.104;2023-11-21T05:09:41;0.68;;;0.35;;
75634;SDS011;64227;48.724;9.104;2023-11-21T05:12:10;0.50;;;0.20;;
75634;SDS011;64227;48.724;9.104;2023-11-21T05:14:36;0.32;;;0.30;;
75634;SDS011;64227;48.724;9.104;2023-11-21T05:17:02;0.55;;;0.22;;
75634;SDS011;64227;48.724;9.104;2023-11-21T05:19:29;0.45;;;0.25;;
75634;SDS011;64227;48.724;9.104;2023-11-21T05:21:54;0.77;;;0.40;;
75634;SDS011;64227;48.724;9.104;2023-11-21T05:24:19;1.33;;;0.50;;
75634;SDS011;64227;48.724;9.104;2023-11-21T05:26:45;1.42;;;0.57;;
75634;SDS011;64227;48.724;9.104;2023-11-21T05:29:10;0.57;;;0.57;;
75634;SDS011;64227;48.724;9.104;2023-11-21T05:31:36;0.20;;;0.20;;
75634;SDS011;64227;48.724;9.104;2023-11-21T05:34:01;0.60;;;0.40;;
75634;SDS011;64227;48.724;9.104;2023-11-21T05:36:26;0.25;;;0.25;;
75634;SDS011;64227;48.724;9.104;2023-11-21T05:38:58;1.48;;;0.60;;
75634;SDS011;64227;48.724;9.104;2023-11-21T05:41:23;0.70;;;0.33;;
75634;SDS011;64227;48.724;9.104;2023-11-21T05:43:49;0.50;;;0.40;;
75634;SDS011;64227;48.724;9.104;2023-11-21T05:46:14;0.43;;;0.40;;
75634;SDS011;64227;48.724;9.104;2023-11-21T05:48:39;0.55;;;0.47;;
75634;SDS011;64227;48.724;9.104;2023-11-21T05:51:05;0.63;;;0.50;;
75634;SDS011;64227;48.724;9.104;2023-11-21T05:53:31;0.90;;;0.50;;
75634;SDS011;64227;48.724;9.104;2023-11-21T05:55:56;2.05;;;0.50;;
75634;SDS011;64227;48.724;9.104;2023-11-21T05:58:22;0.50;;;0.50;;
75634;SDS011;64227;48.724;9.104;2023-11-21T06:00:48;1.13;;;0.70;;
75634;SDS011;64227;48.724;9.104;2023-11-21T06:03:13;0.70;;;0.57;;
75634;SDS011;64227;48.724;9.104;2023-11-21T06:05:38;2.10;;;0.40;;
75634;SDS011;64227;48.724;9.104;2023-11-21T06:08:04;0.75;;;0.30;;
75634;SDS011;64227;48.724;9.104;2023-11-21T06:10:29;0.52;;;0.22;;
75634;SDS011;64227;48.724;9.104;2023-11-21T06:12:54;2.00;;;0.50;;
75634;SDS011;64227;48.724;9.104;2023-11-21T06:15:20;2.53;;;0.70;;
75634;SDS011;64227;48.724;9.104;2023-11-21T06:17:47;1.90;;;0.55;;
75634;SDS011;64227;48.724;9.104;2023-11-21T06:20:17;2.38;;;0.57;;
75634;SDS011;64227;48.724;9.104;2023-11-21T06:22:43;0.98;;;0.82;;
75634;SDS011;64227;48.724;9.104;2023-11-21T06:25:10;1.25;;;0.50;;
75634;SDS011;64227;48.724;9.104;2023-11-21T06:27:38;0.60;;;0.40;;
75634;SDS011;64227;48.724;9.104;2023-11-21T06:30:08;1.13;;;0.68;;
75634;SDS011;64227;48.724;9.104;2023-11-21T06:32:34;0.70;;;0.60;;
75634;SDS011;64227;48.724;9.104;2023-11-21T06:35:06;0.82;;;0.47;;
75634;SDS011;64227;48.724;9.104;2023-11-21T06:37:33;0.80;;;0.80;;
75634;SDS011;64227;48.724;9.104;2023-11-21T06:39:58;0.70;;;0.50;;
75634;SDS011;64227;48.724;9.104;2023-11-21T06:42:24;0.52;;;0.52;;
75634;SDS011;64227;48.724;9.104;2023-11-21T06:44:53;0.40;;;0.40;;
75634;SDS011;64227;48.724;9.104;2023-11-21T06:47:24;0.88;;;0.43;;
75634;SDS011;64227;48.724;9.104;2023-11-21T06:49:50;0.65;;;0.65;;
75634;SDS011;64227;48.724;9.104;2023-11-21T06:52:16;0.50;;;0.50;;
75634;SDS011;64227;48.724;9.104;2023-11-21T06:54:42;0.95;;;0.60;;
75634;SDS011;64227;48.724;9.104;2023-11-21T06:57:07;0.68;;;0.65;;
75634;SDS011;64227;48.724;9.104;2023-11-21T06:59:32;0.73;;;0.55;;
75634;SDS011;64227;48.724;9.104;2023-11-21T07:01:58;0.47;;;0.47;;
75634;SDS011;64227;48.724;9.104;2023-11-21T07:04:23;1.98;;;0.50;;
75634;SDS011;64227;48.724;9.104;2023-11-21T07:06:50;0.30;;;0.30;;
75634;SDS011;64227;48.724;9.104;2023-11-21T07:09:16;0.60;;;0.50;;
75634;SDS011;64227;48.724;9.104;2023-11-21T07:11:41;0.57;;;0.57;;
75634;SDS011;64227;48.724;9.104;2023-11-21T07:14:07;0.60;;;0.60;;
75634;SDS011;64227;48.724;9.104;2023-11-21T07:16:34;0.70;;;0.70;;
75634;SDS011;64227;48.724;9.104;2023-11-21T07:19:02;1.35;;;0.75;;
75634;SDS011;64227;48.724;9.104;2023-11-21T07:21:29;1.80;;;0.98;;
75634;SDS011;64227;48.724;9.104;2023-11-21T07:23:54;1.20;;;0.68;;
75634;SDS011;64227;48.724;9.104;2023-11-21T07:26:20;2.20;;;1.30;;
75634;SDS011;64227;48.724;9.104;2023-11-21T07:28:45;1.77;;;0.75;;
75634;SDS011;64227;48.724;9.104;2023-11-21T07:31:10;1.80;;;1.17;;
75634;SDS011;64227;48.724;9.104;2023-11-21T07:33:37;1.42;;;0.70;;
75634;SDS011;64227;48.724;9.104;2023-11-21T07:36:02;0.30;;;0.30;;
75634;SDS011;64227;48.724;9.104;2023-11-21T07:38:27;1.27;;;0.60;;
75634;SDS011;64227;48.724;9.104;2023-11-21T07:40:53;1.02;;;0.60;;
75634;SDS011;64227;48.724;9.104;2023-11-21T07:43:18;1.38;;;0.70;;
75634;SDS011;64227;48.724;9.104;2023-11-21T07:45:44;0.70;;;0.60;;
75634;SDS011;64227;48.724;9.104;2023-11-21T07:48:09;0.93;;;0.68;;
75634;SDS011;64227;48.724;9.104;2023-11-21T07:50:35;0.50;;;0.50;;
75634;SDS011;64227;48.724;9.104;2023-11-21T07:53:00;0.57;;;0.47;;
75634;SDS011;64227;48.724;9.104;2023-11-21T07:55:25;0.73;;;0.73;;
75634;SDS011;64227;48.724;9.104;2023-11-21T07:57:51;1.00;;;0.63;;
75634;SDS011;64227;48.724;9.104;2023-11-21T08:00:17;0.77;;;0.60;;
75634;SDS011;64227;48.724;9.104;2023-11-21T08:02:42;1.63;;;1.13;;
75634;SDS011;64227;48.724;9.104;2023-11-21T08:05:08;1.42;;;0.98;;
75634;SDS011;64227;48.724;9.104;2023-11-21T08:07:33;1.40;;;0.98;;
75634;SDS011;64227;48.724;9.104;2023-11-21T08:09:59;1.48;;;0.85;;
75634;SDS011;64227;48.724;9.104;2023-11-21T08:12:24;2.00;;;0.82;;
75634;SDS011;64227;48.724;9.104;2023-11-21T08:14:51;2.00;;;1.10;;
75634;SDS011;64227;48.724;9.104;2023-11-21T08:17:16;0.90;;;0.80;;
75634;SDS011;64227;48.724;9.104;2023-11-21T08:19:41;1.83;;;0.77;;
75634;SDS011;64227;48.724;9.104;2023-11-21T08:22:07;3.17;;;1.03;;
75634;SDS011;64227;48.724;9.104;2023-11-21T08:24:32;1.00;;;0.90;;
75634;SDS011;64227;48.724;9.104;2023-11-21T08:26:58;1.10;;;1.00;;
75634;SDS011;64227;48.724;9.104;2023-11-21T08:29:23;1.42;;;0.98;;
75634;SDS011;64227;48.724;9.104;2023-11-21T08:31:49;2.90;;;0.85;;
75634;SDS011;64227;48.724;9.104;2023-11-21T08:34:14;1.55;;;0.90;;
75634;SDS011;64227;48.724;9.104;2023-11-21T08:36:43;1.50;;;1.20;;
75634;SDS011;64227;48.724;9.104;2023-11-21T08:39:08;3.50;;;1.52;;
75634;SDS011;64227;48.724;9.104;2023-11-21T08:41:34;2.80;;;1.45;;
75634;SDS011;64227;48.724;9.104;2023-11-21T08:44:01;7.10;;;1.80;;
75634;SDS011;64227;48.724;9.104;2023-11-21T08:46:27;2.60;;;1.17;;
75634;SDS011;64227;48.724;9.104;2023-11-21T08:48:52;3.92;;;1.95;;
75634;SDS011;64227;48.724;9.104;2023-11-21T08:51:18;3.78;;;1.85;;
75634;SDS011;64227;48.724;9.104;2023-11-21T08:53:43;2.38;;;1.10;;
75634;SDS011;64227;48.724;9.104;2023-11-21T08:56:14;3.30;;;1.90;;
75634;SDS011;64227;48.724;9.104;2023-11-21T08:58:40;2.53;;;1.52;;
75634;SDS011;64227;48.724;9.104;2023-11-21T09:01:06;1.08;;;0.90;;
75634;SDS011;64227;48.724;9.104;2023-11-21T09:03:32;0.40;;;0.40;;
75634;SDS011;64227;48.724;9.104;2023-11-21T09:05:59;1.48;;;1.02;;
75634;SDS011;64227;48.724;9.104;2023-11-21T09:08:24;0.98;;;0.80;;
75634;SDS011;64227;48.724;9.104;2023-11-21T09:10:50;1.17;;;0.90;;
75634;SDS011;64227;48.724;9.104;2023-11-21T09:13:15;0.93;;;0.80;;
75634;SDS011;64227;48.724;9.104;2023-11-21T09:15:41;2.90;;;2.65;;
75634;SDS011;64227;48.724;9.104;2023-11-21T09:18:11;3.20;;;2.47;;
75634;SDS011;64227;48.724;9.104;2023-11-21T09:20:37;1.20;;;1.10;;
75634;SDS011;64227;48.724;9.104;2023-11-21T09:23:02;0.93;;;0.93;;
75634;SDS011;64227;48.724;9.104;2023-11-21T09:25:28;1.33;;;0.70;;
75634;SDS011;64227;48.724;9.104;2023-11-21T09:27:53;0.90;;;0.50;;
75634;SDS011;64227;48.724;9.104;2023-11-21T09:30:19;1.08;;;0.77;;
75634;SDS011;64227;48.724;9.104;2023-11-21T09:32:45;0.40;;;0.40;;
75634;SDS011;64227;48.724;9.104;2023-11-21T09:35:10;0.80;;;0.68;;
75634;SDS011;64227;48.724;9.104;2023-11-21T09:37:36;0.80;;;0.52;;
75634;SDS011;64227;48.724;9.104;2023-11-21T09:40:03;0.70;;;0.50;;
75634;SDS011;64227;48.724;9.104;2023-11-21T09:42:30;0.60;;;0.60;;
75634;SDS011;64227;48.724;9.104;2023-11-21T09:47:52;0.60;;;0.60;;
75634;SDS011;64227;48.724;9.104;2023-11-21T09:50:19;3.15;;;1.00;;
75634;SDS011;64227;48.724;9.104;2023-11-21T09:55:18;1.17;;;0.63;;
75634;SDS011;64227;48.724;9.104;2023-11-21T09:57:46;0.52;;;0.50;;
75634;SDS011;64227;48.724;9.104;2023-11-21T10:00:13;2.42;;;0.50;;
75634;SDS011;64227;48.724;9.104;2023-11-21T10:05:07;0.90;;;0.43;;
75634;SDS011;64227;48.724;9.104;2023-11-21T10:10:02;1.40;;;0.40;;
75634;SDS011;64227;48.724;9.104;2023-11-21T10:12:28;1.00;;;0.40;;
75634;SDS011;64227;48.724;9.104;2023-11-21T10:14:53;0.50;;;0.50;;
75634;SDS011;64227;48.724;9.104;2023-11-21T10:17:20;0.50;;;0.50;;
75634;SDS011;64227;48.724;9.104;2023-11-21T10:19:47;1.00;;;0.90;;
75634;SDS011;64227;48.724;9.104;2023-11-21T10:22:13;0.80;;;0.70;;
75634;SDS011;64227;48.724;9.104;2023-11-21T10:24:40;1.00;;;0.70;;
75634;SDS011;64227;48.724;9.104;2023-11-21T10:27:05;2.00;;;0.68;;
75634;SDS011;64227;48.724;9.104;2023-11-21T10:29:30;1.05;;;0.60;;
75634;SDS011;64227;48.724;9.104;2023-11-21T10:32:00;3.05;;;0.70;;
75634;SDS011;64227;48.724;9.104;2023-11-21T10:34:27;1.30;;;1.20;;
75634;SDS011;64227;48.724;9.104;2023-11-21T10:36:52;0.98;;;0.80;;
75634;SDS011;64227;48.724;9.104;2023-11-21T10:39:18;0.65;;;0.40;;
75634;SDS011;64227;48.724;9.104;2023-11-21T10:41:44;0.88;;;0.60;;
75634;SDS011;64227;48.724;9.104;2023-11-21T10:44:16;0.68;;;0.63;;
75634;SDS011;64227;48.724;9.104;2023-11-21T10:46:46;0.60;;;0.60;;
75634;SDS011;64227;48.724;9.104;2023-11-21T10:49:15;0.70;;;0.50;;
75634;SDS011;64227;48.724;9.104;2023-11-21T10:51:44;1.58;;;0.52;;
75634;SDS011;64227;48.724;9.104;2023-11-21T10:54:09;2.33;;;0.70;;
75634;SDS011;64227;48.724;9.104;2023-11-21T10:56:35;0.75;;;0.50;;
75634;SDS011;64227;48.724;9.104;2023-11-21T10:59:05;1.27;;;0.55;;
75634;SDS011;64227;48.724;9.104;2023-11-21T11:01:33;0.52;;;0.52;;
75634;SDS011;64227;48.724;9.104;2023-11-21T11:03:58;1.02;;;0.70;;
75634;SDS011;64227;48.724;9.104;2023-11-21T11:06:24;0.93;;;0.70;;
75634;SDS011;64227;48.724;9.104;2023-11-21T11:08:52;1.20;;;0.63;;
75634;SDS011;64227;48.724;9.104;2023-11-21T11:11:17;0.55;;;0.50;;
75634;SDS011;64227;48.724;9.104;2023-11-21T11:13:43;0.95;;;0.65;;
75634;SDS011;64227;48.724;9.104;2023-11-21T11:16:12;0.50;;;0.50;;
75634;SDS011;64227;48.724;9.104;2023-11-21T11:18:58;1.17;;;0.60;;
75634;SDS011;64227;48.724;9.104;2023-11-21T11:21:25;0.70;;;0.60;;
75634;SDS011;64227;48.724;9.104;2023-11-21T11:24:13;0.60;;;0.60;;
75634;SDS011;64227;48.724;9.104;2023-11-21T11:29:35;2.28;;;0.63;;
75634;SDS011;64227;48.724;9.104;2023-11-21T11:34:56;1.20;;;0.70;;
75634;SDS011;64227;48.724;9.104;2023-11-21T11:37:47;0.93;;;0.80;;
75634;SDS011;64227;48.724;9.104;2023-11-21T11:40:13;0.77;;;0.70;;
75634;SDS011;64227;48.724;9.104;2023-11-21T11:42:38;0.52;;;0.52;;
75634;SDS011;64227;48.724;9.104;2023-11-21T11:45:22;1.73;;;0.60;;
75634;SDS011;64227;48.724;9.104;2023-11-21T11:47:47;1.58;;;0.80;;
75634;SDS011;64227;48.724;9.104;2023-11-21T11:50:13;0.73;;;0.70;;
75634;SDS011;64227;48.724;9.104;2023-11-21T11:55:19;0.95;;;0.85;;
75634;SDS011;64227;48.724;9.104;2023-11-21T11:57:48;0.70;;;0.70;;
75634;SDS011;64227;48.724;9.104;2023-11-21T12:03:05;0.60;;;0.50;;
75634;SDS011;64227;48.724;9.104;2023-11-21T12:06:10;0.70;;;0.70;;
75634;SDS011;64227;48.724;9.104;2023-11-21T12:09:23;0.70;;;0.60;;
75634;SDS011;64227;48.724;9.104;2023-11-21T12:12:45;0.63;;;0.63;;
75634;SDS011;64227;48.724;9.104;2023-11-21T12:16:19;1.40;;;0.60;;
75634;SDS011;64227;48.724;9.104;2023-11-21T12:19:40;0.73;;;0.73;;
75634;SDS011;64227;48.724;9.104;2023-11-21T12:22:05;1.13;;;0.80;;
75634;SDS011;64227;48.724;9.104;2023-11-21T12:24:31;0.73;;;0.70;;
75634;SDS011;64227;48.724;9.104;2023-11-21T12:26:57;0.90;;;0.90;;
75634;SDS011;64227;48.724;9.104;2023-11-21T12:29:25;2.58;;;1.75;;
75634;SDS011;64227;48.724;9.104;2023-11-21T12:31:51;4.65;;;3.33;;
75634;SDS011;64227;48.724;9.104;2023-11-21T12:37:38;10.80;;;5.60;;
75634;SDS011;64227;48.724;9.104;2023-11-21T12:41:11;14.32;;;6.57;;
75634;SDS011;64227;48.724;9.104;2023-11-21T12:47:33;40.58;;;16.85;;
75634;SDS011;64227;48.724;9.104;2023-11-21T12:50:57;21.23;;;9.38;;
75634;SDS011;64227;48.724;9.104;2023-11-21T12:57:56;29.38;;;14.40;;
75634;SDS011;64227;48.724;9.104;2023-11-21T13:00:31;19.88;;;8.75;;
75634;SDS011;64227;48.724;9.104;2023-11-21T13:02:57;15.00;;;9.88;;
75634;SDS011;64227;48.724;9.104;2023-11-21T13:05:24;10.02;;;8.20;;
75634;SDS011;64227;48.724;9.104;2023-11-21T13:08:00;4.55;;;3.97;;
75634;SDS011;64227;48.724;9.104;2023-11-21T13:10:28;3.20;;;2.50;;
75634;SDS011;64227;48.724;9.104;2023-11-21T13:13:13;4.43;;;3.38;;
75634;SDS011;64227;48.724;9.104;2023-11-21T13:15:52;5.57;;;4.13;;
75634;SDS011;64227;48.724;9.104;2023-11-21T13:18:25;4.13;;;3.38;;
75634;SDS011;64227;48.724;9.104;2023-11-21T13:20:54;6.55;;;4.35;;
75634;SDS011;64227;48.724;9.104;2023-11-21T13:23:20;4.38;;;3.75;;
75634;SDS011;64227;48.724;9.104;2023-11-21T13:25:45;8.05;;;6.80;;
75634;SDS011;64227;48.724;9.104;2023-11-21T13:28:12;3.35;;;3.05;;
75634;SDS011;64227;48.724;9.104;2023-11-21T13:30:40;2.80;;;2.42;;
75634;SDS011;64227;48.724;9.104;2023-11-21T13:33:06;2.15;;;1.98;;
75634;SDS011;64227;48.724;9.104;2023-11-21T13:35:33;3.40;;;2.70;;
75634;SDS011;64227;48.724;9.104;2023-11-21T13:38:05;2.22;;;2.03;;
75634;SDS011;64227;48.724;9.104;2023-11-21T13:40:32;8.32;;;5.20;;
75634;SDS011;64227;48.724;9.104;2023-11-21T13:42:59;4.18;;;3.22;;
75634;SDS011;64227;48.724;9.104;2023-11-21T13:45:29;2.53;;;2.13;;
75634;SDS011;64227;48.724;9.104;2023-11-21T13:47:54;1.88;;;1.48;;
75634;SDS011;64227;48.724;9.104;2023-11-21T13:50:23;2.83;;;2.00;;
75634;SDS011;64227;48.724;9.104;2023-11-21T13:52:52;2.83;;;1.92;;
75634;SDS011;64227;48.724;9.104;2023-11-21T13:55:18;1.55;;;1.20;;
75634;SDS011;64227;48.724;9.104;2023-11-21T13:57:44;1.33;;;1.20;;
75634;SDS011;64227;48.724;9.104;2023-11-21T14:00:12;2.13;;;1.20;;
75634;SDS011;64227;48.724;9.104;2023-11-21T14:02:58;2.35;;;1.45;;
75634;SDS011;64227;48.724;9.104;2023-11-21T14:05:30;10.10;;;7.72;;
75634;SDS011;64227;48.724;9.104;2023-11-21T14:07:56;10.80;;;9.70;;
75634;SDS011;64227;48.724;9.104;2023-11-21T14:10:28;11.70;;;10.60;;
75634;SDS011;64227;48.724;9.104;2023-11-21T14:13:05;7.45;;;6.85;;
75634;SDS011;64227;48.724;9.104;2023-11-21T14:15:32;4.68;;;4.32;;
75634;SDS011;64227;48.724;9.104;2023-11-21T14:18:02;6.65;;;6.15;;
75634;SDS011;64227;48.724;9.104;2023-11-21T14:20:32;3.58;;;3.28;;
75634;SDS011;64227;48.724;9.104;2023-11-21T14:22:58;3.05;;;2.70;;
75634;SDS011;64227;48.724;9.104;2023-11-21T14:25:23;2.47;;;2.28;;
75634;SDS011;64227;48.724;9.104;2023-11-21T14:27:49;3.15;;;1.77;;
75634;SDS011;64227;48.724;9.104;2023-11-21T14:30:15;1.92;;;1.48;;
75634;SDS011;64227;48.724;9.104;2023-11-21T14:35:09;1.40;;;1.30;;
75634;SDS011;64227;48.724;9.104;2023-11-21T14:37:34;1.55;;;1.23;;
75634;SDS011;64227;48.724;9.104;2023-11-21T14:40:02;1.20;;;1.10;;
75634;SDS011;64227;48.724;9.104;2023-11-21T14:42:29;1.50;;;1.40;;
75634;SDS011;64227;48.724;9.104;2023-11-21T14:44:54;2.25;;;1.85;;
75634;SDS011;64227;48.724;9.104;2023-11-21T14:47:25;5.00;;;3.25;;
75634;SDS011;64227;48.724;9.104;2023-11-21T14:49:52;4.72;;;2.78;;
75634;SDS011;64227;48.724;9.104;2023-11-21T14:52:18;1.90;;;1.50;;
75634;SDS011;64227;48.724;9.104;2023-11-21T14:54:55;1.95;;;1.60;;
75634;SDS011;64227;48.724;9.104;2023-11-21T14:57:41;2.13;;;1.40;;
75634;SDS011;64227;48.724;9.104;2023-11-21T15:00:08;1.52;;;1.17;;
75634;SDS011;64227;48.724;9.104;2023-11-21T15:02:54;1.30;;;1.20;;
75634;SDS011;64227;48.724;9.104;2023-11-21T15:05:19;1.20;;;1.10;;
75634;SDS011;64227;48.724;9.104;2023-11-21T15:07:45;1.95;;;1.70;;
75634;SDS011;64227;48.724;9.104;2023-11-21T15:10:11;2.45;;;1.50;;
75634;SDS011;64227;48.724;9.104;2023-11-21T15:12:39;1.95;;;1.75;;
75634;SDS011;64227;48.724;9.104;2023-11-21T15:15:05;2.75;;;1.67;;
75634;SDS011;64227;48.724;9.104;2023-11-21T15:17:35;2.15;;;1.63;;
75634;SDS011;64227;48.724;9.104;2023-11-21T15:20:01;2.72;;;1.80;;
75634;SDS011;64227;48.724;9.104;2023-11-21T15:22:28;2.05;;;1.58;;
75634;SDS011;64227;48.724;9.104;2023-11-21T15:24:53;1.60;;;1.48;;
75634;SDS011;64227;48.724;9.104;2023-11-21T15:27:19;2.10;;;1.60;;